Dawson Springs, Kentucky
Current Conditions -  °F | °C
As of 10:15 AM on Saturday 25 Oct 2014 (Local Time) from K2I0 Reporting Station
Scattered Clouds Scattered Clouds  
Wind Chill: 69°   Ceiling: Unl
Heat Index: 69°   Visibility: 10mi
Dew Point: 59°   Wind: 7mph
Humidity: 72%   Direction: 260°W
Pressure: 30.05"   Gusts: NA
Location:  37.17°N, 87.69°W
Report Text: K2I0 251515Z AUTO 26006KT 10SM SCT050 21/15 A3005 RMK AO2 T02050152
Loading
Personal Weather Stations






























Interactive Weather Map
Tropical Storm Tracking
New forecast layout! Learn more

10-Day Weather Forecast

Advertisements
Track Severe Weather on mobile